Time;durP1;ratioP1;P1;durP2;ratioP2;P2;SDS_P1;SDS_P2;PMS_P1;PMS_P2;Temp;Humidity;BMP_temperature;BMP_pressure;BME280_temperature;BME280_humidity;BME280_pressure;Samples;Min_cycle;Max_cycle;Signal;HPM_P1;HPM_P2
2021/01/03 00:01:41;;;;;;;18.75;10.98;;;8.50;81.70;;;;;;5094428;28;20446;-68
2021/01/03 00:04:07;;;;;;;19.85;11.40;;;8.50;81.20;;;;;;5095549;28;20024;-68
2021/01/03 00:06:33;;;;;;;19.58;11.50;;;8.50;81.10;;;;;;5095562;28;20028;-68
2021/01/03 00:08:58;;;;;;;20.67;11.52;;;8.50;81.30;;;;;;5093945;28;20067;-68
2021/01/03 00:11:24;;;;;;;16.42;10.80;;;8.50;81.40;;;;;;5094098;28;20350;-67
2021/01/03 00:13:50;;;;;;;20.80;12.88;;;8.60;81.40;;;;;;5095066;28;20098;-69
2021/01/03 00:16:16;;;;;;;22.42;12.50;;;8.50;81.70;;;;;;5093837;28;20027;-67
2021/01/03 00:18:41;;;;;;;21.90;12.90;;;8.50;81.60;;;;;;5095294;28;20093;-68
2021/01/03 00:21:10;;;;;;;24.17;14.40;;;8.50;81.50;;;;;;5095608;28;20450;-68
2021/01/03 00:23:35;;;;;;;19.67;11.07;;;8.50;81.70;;;;;;5093674;28;20408;-67
2021/01/03 00:26:02;;;;;;;21.42;12.55;;;8.60;81.70;;;;;;5095178;28;20032;-68
2021/01/03 00:28:27;;;;;;;19.60;11.57;;;8.50;81.60;;;;;;5094767;28;20032;-69
2021/01/03 00:30:53;;;;;;;19.40;10.77;;;8.60;81.90;;;;;;5094788;28;20062;-67
2021/01/03 00:33:19;;;;;;;20.92;10.60;;;8.60;81.80;;;;;;5094794;28;20102;-67
2021/01/03 00:35:45;;;;;;;17.65;10.75;;;8.60;82.20;;;;;;5094954;28;20024;-67
2021/01/03 00:38:12;;;;;;;17.63;10.65;;;8.60;82.00;;;;;;5095516;28;20050;-67
2021/01/03 00:40:38;;;;;;;18.70;11.02;;;8.60;81.60;;;;;;5094906;28;20024;-68
2021/01/03 00:43:06;;;;;;;18.13;11.02;;;8.60;81.90;;;;;;5094752;28;20028;-68
2021/01/03 00:45:32;;;;;;;18.20;10.60;;;8.50;82.50;;;;;;5093517;28;20059;-68
2021/01/03 00:47:58;;;;;;;22.25;12.05;;;8.60;82.40;;;;;;5094868;28;20035;-67
2021/01/03 00:50:25;;;;;;;20.45;11.30;;;8.50;82.40;;;;;;5093141;28;20028;-68
2021/01/03 00:52:51;;;;;;;16.98;10.63;;;8.60;82.50;;;;;;5094653;28;20024;-67
2021/01/03 00:55:18;;;;;;;18.25;10.82;;;8.60;82.80;;;;;;5094447;28;20074;-67
2021/01/03 00:57:44;;;;;;;19.67;11.13;;;8.60;83.00;;;;;;5092997;28;20035;-68
2021/01/03 01:00:20;;;;;;;21.77;11.60;;;8.50;82.50;;;;;;5094994;28;20032;-68
2021/01/03 01:02:46;;;;;;;20.25;11.48;;;8.60;82.90;;;;;;5093285;28;20028;-68
2021/01/03 01:05:13;;;;;;;20.25;10.98;;;8.50;82.60;;;;;;5092831;28;20035;-67
2021/01/03 01:07:39;;;;;;;20.15;10.82;;;8.60;82.50;;;;;;5094680;28;20028;-67
2021/01/03 01:10:08;;;;;;;18.20;10.18;;;8.50;82.40;;;;;;5094402;28;20461;-68
2021/01/03 01:12:35;;;;;;;19.08;10.38;;;8.50;82.80;;;;;;5093544;28;20461;-67
2021/01/03 01:15:07;;;;;;;18.38;9.85;;;8.50;83.00;;;;;;5095301;28;20051;-69
2021/01/03 01:17:32;;;;;;;21.95;10.85;;;8.50;83.00;;;;;;5094473;28;20535;-68
2021/01/03 01:19:58;;;;;;;16.92;10.65;;;8.50;82.50;;;;;;5092925;28;20024;-68
2021/01/03 01:22:24;;;;;;;21.15;11.70;;;8.50;82.40;;;;;;5094240;28;20111;-67
2021/01/03 01:24:50;;;;;;;19.13;11.52;;;8.50;82.60;;;;;;5093856;28;20024;-68
2021/01/03 01:27:15;;;;;;;22.15;12.43;;;8.50;83.20;;;;;;5093185;28;20166;-69
2021/01/03 01:29:41;;;;;;;21.95;11.55;;;8.50;83.20;;;;;;5094134;28;20583;-69
2021/01/03 01:32:07;;;;;;;19.75;11.57;;;8.50;83.30;;;;;;5092386;28;20032;-66
2021/01/03 01:34:33;;;;;;;19.90;11.43;;;8.40;83.40;;;;;;5094105;28;20028;-68
2021/01/03 01:36:59;;;;;;;19.55;10.18;;;8.40;83.70;;;;;;5094277;28;20028;-68
2021/01/03 01:39:25;;;;;;;19.15;10.52;;;8.40;83.40;;;;;;5092387;28;20024;-70
2021/01/03 01:41:50;;;;;;;17.60;9.73;;;8.40;83.10;;;;;;5092637;28;20051;-68
2021/01/03 01:44:16;;;;;;;16.73;9.90;;;8.40;83.60;;;;;;5093907;28;20020;-67
2021/01/03 01:47:00;;;;;;;17.17;9.52;;;8.40;83.70;;;;;;5093886;28;20480;-67
2021/01/03 01:49:27;;;;;;;17.63;9.93;;;8.40;83.50;;;;;;5093195;28;20090;-67
2021/01/03 01:51:54;;;;;;;18.33;9.68;;;8.40;83.50;;;;;;5093860;28;20048;-67
2021/01/03 01:54:33;;;;;;;19.33;9.98;;;8.40;83.40;;;;;;5093504;28;20028;-68
2021/01/03 01:57:09;;;;;;;21.63;12.45;;;8.40;83.20;;;;;;5092499;28;20032;-68
2021/01/03 01:59:38;;;;;;;18.83;11.07;;;8.40;83.30;;;;;;5093204;28;20091;-67
2021/01/03 02:02:42;;;;;;;22.05;11.60;;;8.40;83.30;;;;;;5093470;28;20020;-68
2021/01/03 02:05:14;;;;;;;23.00;10.75;;;8.40;83.40;;;;;;5092433;28;20078;-68
2021/01/03 02:07:54;;;;;;;23.70;12.05;;;8.40;83.20;;;;;;5092285;28;20039;-68
2021/01/03 02:10:45;;;;;;;50.38;21.38;;;8.40;83.20;;;;;;5094034;28;20101;-68
2021/01/03 02:13:38;;;;;;;38.95;16.08;;;8.40;83.40;;;;;;5093510;28;20074;-67
2021/01/03 02:16:09;;;;;;;26.02;13.18;;;8.40;83.60;;;;;;5093331;28;20024;-67
2021/01/03 02:18:35;;;;;;;16.48;10.10;;;8.40;84.70;;;;;;5092348;28;20035;-68
2021/01/03 02:21:36;;;;;;;28.48;13.43;;;8.40;84.30;;;;;;5092003;28;20111;-67
2021/01/03 02:24:07;;;;;;;24.35;12.25;;;8.40;84.10;;;;;;5094701;28;20485;-69
2021/01/03 02:26:51;;;;;;;27.05;12.68;;;8.40;84.00;;;;;;5097558;28;20032;-67
2021/01/03 02:29:20;;;;;;;18.08;10.10;;;8.40;84.70;;;;;;5097273;28;20028;-67
2021/01/03 02:31:50;;;;;;;16.30;9.80;;;8.40;84.20;;;;;;5097147;28;20104;-67
2021/01/03 02:34:35;;;;;;;12.15;7.93;;;8.30;84.20;;;;;;5097373;28;20021;-68
2021/01/03 02:37:22;;;;;;;18.20;9.80;;;8.40;84.00;;;;;;5097372;28;20024;-66
2021/01/03 02:39:59;;;;;;;17.58;9.40;;;8.40;83.90;;;;;;5097325;28;20111;-68
2021/01/03 02:42:31;;;;;;;11.40;6.82;;;8.40;83.50;;;;;;5097038;28;20384;-67
2021/01/03 02:44:57;;;;;;;25.98;11.48;;;8.40;84.10;;;;;;5097539;28;20457;-68
2021/01/03 02:47:33;;;;;;;34.97;13.90;;;8.40;83.60;;;;;;5095786;28;20074;-67
2021/01/03 02:49:59;;;;;;;53.47;18.30;;;8.40;83.80;;;;;;5096818;28;20082;-67
2021/01/03 02:52:34;;;;;;;21.10;10.05;;;8.40;84.30;;;;;;5097289;28;20449;-66
2021/01/03 02:55:00;;;;;;;38.17;13.85;;;8.40;84.40;;;;;;5097282;28;20107;-67
2021/01/03 02:57:26;;;;;;;42.40;14.68;;;8.30;84.20;;;;;;5096645;28;20028;-68
2021/01/03 02:59:52;;;;;;;39.22;14.80;;;8.30;84.40;;;;;;5096897;28;20419;-67
2021/01/03 03:02:18;;;;;;;16.83;8.23;;;8.30;84.40;;;;;;5095278;28;20024;-67
2021/01/03 03:04:44;;;;;;;12.63;8.05;;;8.30;85.00;;;;;;5096733;28;20367;-68
2021/01/03 03:07:10;;;;;;;14.57;7.90;;;8.30;84.90;;;;;;5096668;28;20088;-68
2021/01/03 03:09:36;;;;;;;16.10;8.50;;;8.30;84.50;;;;;;5095146;28;20028;-68
2021/01/03 03:12:02;;;;;;;13.40;8.27;;;8.30;84.70;;;;;;5096431;28;20118;-67
2021/01/03 03:14:28;;;;;;;15.60;8.00;;;8.20;84.90;;;;;;5096911;28;20082;-67
2021/01/03 03:17:03;;;;;;;14.00;7.85;;;8.20;84.90;;;;;;5095844;28;20381;-67
2021/01/03 03:19:29;;;;;;;16.02;7.60;;;8.30;84.70;;;;;;5096597;28;20016;-67
2021/01/03 03:21:54;;;;;;;13.82;8.00;;;8.20;84.90;;;;;;5095006;28;20031;-68
2021/01/03 03:24:21;;;;;;;12.93;7.90;;;8.20;84.70;;;;;;5094796;28;20024;-66
2021/01/03 03:26:58;;;;;;;11.80;7.47;;;8.20;84.70;;;;;;5096289;28;20023;-67
2021/01/03 03:29:24;;;;;;;15.77;8.10;;;8.30;84.90;;;;;;5095050;28;20032;-68
2021/01/03 03:31:52;;;;;;;15.73;9.20;;;8.30;84.70;;;;;;5094659;28;20020;-68
2021/01/03 03:34:19;;;;;;;28.15;13.82;;;8.30;84.70;;;;;;5095846;28;20062;-68
2021/01/03 03:36:45;;;;;;;40.35;18.00;;;8.30;84.90;;;;;;5096780;28;20492;-67
2021/01/03 03:39:12;;;;;;;34.88;15.45;;;8.30;85.00;;;;;;5095471;28;20035;-67
2021/01/03 03:41:38;;;;;;;39.53;18.75;;;8.30;84.60;;;;;;5094800;28;20385;-67
2021/01/03 03:44:05;;;;;;;23.60;13.38;;;8.30;85.30;;;;;;5096407;28;20028;-65
2021/01/03 03:46:30;;;;;;;18.77;10.48;;;8.20;85.70;;;;;;5095460;28;20130;-67
2021/01/03 03:48:56;;;;;;;16.15;9.82;;;8.20;86.00;;;;;;5094657;28;20040;-67
2021/01/03 03:51:22;;;;;;;20.08;9.98;;;8.20;86.60;;;;;;5095720;28;20036;-67
2021/01/03 03:53:48;;;;;;;26.10;11.68;;;8.20;86.50;;;;;;5095881;28;20047;-67
2021/01/03 03:56:16;;;;;;;26.92;11.93;;;8.20;86.50;;;;;;5095536;28;20024;-69
2021/01/03 03:58:42;;;;;;;28.77;11.80;;;8.20;86.30;;;;;;5095250;28;20081;-69
2021/01/03 04:01:08;;;;;;;27.33;11.45;;;8.20;86.60;;;;;;5095621;28;20028;-68
2021/01/03 04:03:34;;;;;;;26.60;11.75;;;8.20;86.70;;;;;;5094413;28;20028;-67
2021/01/03 04:06:00;;;;;;;40.20;14.70;;;8.10;86.70;;;;;;5095203;28;20376;-68
2021/01/03 04:08:27;;;;;;;30.20;13.38;;;8.20;86.70;;;;;;5094129;28;20085;-66
2021/01/03 04:10:52;;;;;;;29.85;12.10;;;8.20;86.50;;;;;;5095529;28;20032;-68
2021/01/03 04:13:18;;;;;;;20.90;10.35;;;8.20;86.10;;;;;;5094601;28;20052;-66
2021/01/03 04:15:44;;;;;;;21.25;9.90;;;8.20;86.20;;;;;;5095468;28;20024;-67
2021/01/03 04:18:10;;;;;;;20.92;9.55;;;8.20;86.30;;;;;;5095116;28;20397;-68
2021/01/03 04:20:37;;;;;;;15.20;9.13;;;8.20;86.50;;;;;;5094999;28;20032;-68
2021/01/03 04:23:07;;;;;;;17.02;9.77;;;8.20;86.60;;;;;;5095310;28;20024;-68
2021/01/03 04:25:33;;;;;;;20.83;10.98;;;8.20;86.30;;;;;;5094954;28;20482;-67
2021/01/03 04:28:00;;;;;;;22.58;11.68;;;8.20;86.40;;;;;;5094471;28;20423;-67
2021/01/03 04:30:26;;;;;;;32.75;17.00;;;8.20;86.30;;;;;;5093887;28;20393;-68
2021/01/03 04:32:53;;;;;;;40.40;22.70;;;8.20;86.20;;;;;;5095087;28;20031;-68
2021/01/03 04:35:20;;;;;;;33.42;22.23;;;8.20;86.30;;;;;;5094712;28;20016;-66
2021/01/03 04:37:46;;;;;;;26.83;16.35;;;8.20;86.40;;;;;;5093731;28;20039;-66
2021/01/03 04:40:19;;;;;;;23.38;12.63;;;8.10;85.90;;;;;;5093975;28;20028;-68
2021/01/03 04:42:50;;;;;;;19.67;12.55;;;8.10;86.10;;;;;;5095202;28;20035;-66
2021/01/03 04:45:22;;;;;;;24.65;14.77;;;8.10;86.30;;;;;;5093876;28;20027;-67
2021/01/03 04:48:00;;;;;;;25.55;18.17;;;8.10;86.40;;;;;;5092620;28;20024;-66
2021/01/03 04:50:29;;;;;;;31.63;20.38;;;8.10;86.60;;;;;;5094492;28;20176;-68
2021/01/03 04:53:13;;;;;;;27.60;16.90;;;8.10;86.50;;;;;;5093412;28;20024;-66
2021/01/03 04:55:49;;;;;;;21.10;12.68;;;8.10;86.40;;;;;;5093101;28;20028;-68
2021/01/03 04:58:15;;;;;;;19.60;11.15;;;8.10;85.80;;;;;;5093368;28;20028;-68
2021/01/03 05:00:49;;;;;;;13.88;9.02;;;8.10;86.20;;;;;;5094599;28;20031;-66
2021/01/03 05:03:24;;;;;;;16.67;10.98;;;8.10;86.40;;;;;;5093000;28;20020;-67
2021/01/03 05:05:51;;;;;;;;;;;8.10;86.60;;;;;;5093652;28;20031;-67
2021/01/03 05:08:25;;;;;;;24.58;14.15;;;8.10;86.70;;;;;;5092774;28;19915;-66
2021/01/03 05:10:51;;;;;;;26.00;13.60;;;8.10;87.00;;;;;;5094500;28;20106;-66
2021/01/03 05:13:37;;;;;;;24.50;14.73;;;8.10;87.00;;;;;;5093939;28;20741;-69
2021/01/03 05:16:03;;;;;;;23.67;13.32;;;8.10;87.50;;;;;;5094017;28;20046;-67
2021/01/03 05:18:30;;;;;;;17.38;9.50;;;8.10;87.10;;;;;;5092935;28;20076;-69
2021/01/03 05:20:58;;;;;;;17.15;9.52;;;8.10;87.90;;;;;;5094247;28;20028;-66
2021/01/03 05:23:27;;;;;;;21.52;10.50;;;8.10;87.10;;;;;;5092508;28;20041;-67
2021/01/03 05:25:54;;;;;;;25.73;14.27;;;8.10;87.90;;;;;;5094121;28;20020;-68
2021/01/03 05:28:24;;;;;;;30.42;16.02;;;8.10;87.90;;;;;;5094037;28;20031;-66
2021/01/03 05:30:51;;;;;;;29.38;18.48;;;8.20;87.50;;;;;;5093520;28;20028;-67
2021/01/03 05:33:27;;;;;;;35.80;19.85;;;8.20;88.20;;;;;;5093733;28;20477;-67
2021/01/03 05:35:54;;;;;;;37.05;21.92;;;8.20;88.90;;;;;;5092814;28;20113;-67
2021/01/03 05:38:39;;;;;;;32.45;21.63;;;8.20;89.30;;;;;;5093641;28;20412;-67
2021/01/03 05:41:17;;;;;;;33.50;21.58;;;8.20;89.00;;;;;;5094431;28;20106;-67
2021/01/03 05:43:47;;;;;;;38.60;22.83;;;8.20;89.10;;;;;;5092913;28;20028;-65
2021/01/03 05:46:25;;;;;;;36.88;22.25;;;8.20;88.70;;;;;;5094520;28;20424;-67
2021/01/03 05:49:05;;;;;;;27.70;15.23;;;8.10;89.40;;;;;;5094210;28;20024;-68
2021/01/03 05:51:55;;;;;;;17.08;11.27;;;8.10;89.50;;;;;;5092316;28;20024;-68
2021/01/03 05:54:31;;;;;;;16.13;9.35;;;8.10;89.60;;;;;;5084676;28;20370;-67
2021/01/03 05:57:08;;;;;;;18.77;9.20;;;8.10;90.20;;;;;;5093886;28;20024;-68
2021/01/03 05:59:38;;;;;;;22.67;10.85;;;8.10;89.70;;;;;;5095830;28;20032;-67
2021/01/03 06:02:08;;;;;;;21.67;11.32;;;8.10;89.70;;;;;;5098311;28;20028;-66
2021/01/03 06:04:34;;;;;;;27.23;18.02;;;8.10;89.80;;;;;;5097440;28;20481;-69
2021/01/03 06:07:07;;;;;;;30.05;20.13;;;8.10;89.70;;;;;;5096929;28;20029;-66
2021/01/03 06:09:40;;;;;;;24.77;17.08;;;8.10;89.90;;;;;;5097620;28;20077;-68
2021/01/03 06:12:17;;;;;;;29.58;19.80;;;8.10;89.70;;;;;;5097565;28;20024;-67
2021/01/03 06:14:45;;;;;;;34.67;23.67;;;8.10;89.90;;;;;;5098206;28;20424;-68
2021/01/03 06:17:16;;;;;;;36.97;24.70;;;8.10;89.90;;;;;;5097732;28;20039;-68
2021/01/03 06:19:50;;;;;;;35.95;22.65;;;8.10;90.00;;;;;;5097124;28;20108;-68
2021/01/03 06:22:43;;;;;;;25.38;15.68;;;8.10;89.90;;;;;;5097732;28;20046;-68
2021/01/03 06:25:41;;;;;;;22.55;13.68;;;8.10;90.10;;;;;;5097882;28;20174;-67
2021/01/03 06:28:14;;;;;;;19.80;11.30;;;8.10;90.00;;;;;;5097929;28;20449;-67
2021/01/03 06:30:45;;;;;;;18.40;11.15;;;8.10;90.10;;;;;;5096170;28;20032;-66
2021/01/03 06:33:32;;;;;;;19.63;10.10;;;8.10;89.80;;;;;;5096046;28;20480;-66
2021/01/03 06:36:10;;;;;;;16.33;10.07;;;8.10;90.00;;;;;;5097400;28;20055;-66
2021/01/03 06:39:14;;;;;;;19.10;10.30;;;8.10;90.10;;;;;;5097703;28;20028;-66
2021/01/03 06:41:42;;;;;;;20.67;11.02;;;8.10;90.00;;;;;;5096046;28;20480;-66
2021/01/03 06:44:35;;;;;;;15.75;10.27;;;8.10;90.10;;;;;;5095909;28;20055;-66
2021/01/03 06:47:10;;;;;;;22.75;10.73;;;8.10;90.00;;;;;;5096770;28;20059;-67
2021/01/03 06:49:50;;;;;;;18.17;9.98;;;8.10;90.20;;;;;;5097083;28;20203;-67
2021/01/03 06:52:52;;;;;;;20.63;11.35;;;8.10;90.10;;;;;;5097368;28;20103;-67
2021/01/03 06:55:42;;;;;;;18.52;10.18;;;8.10;90.20;;;;;;5096814;28;20028;-68
2021/01/03 06:58:36;;;;;;;20.23;10.88;;;8.10;90.40;;;;;;5097297;28;20024;-66
2021/01/03 07:01:14;;;;;;;18.13;10.60;;;8.10;90.30;;;;;;5096627;28;20503;-67
2021/01/03 07:03:40;;;;;;;38.70;20.25;;;8.10;90.40;;;;;;5097086;28;20025;-67
2021/01/03 07:06:08;;;;;;;33.15;20.27;;;8.10;90.40;;;;;;5097080;28;20135;-67
2021/01/03 07:08:53;;;;;;;28.25;15.95;;;8.10;90.40;;;;;;5096529;28;20038;-66
2021/01/03 07:11:39;;;;;;;27.58;14.85;;;8.10;90.40;;;;;;5096384;28;20496;-67
2021/01/03 07:14:07;;;;;;;28.38;14.63;;;8.20;90.40;;;;;;5095133;28;20051;-67
2021/01/03 07:16:47;;;;;;;26.40;16.13;;;8.20;90.60;;;;;;5095976;28;20538;-66
2021/01/03 07:19:23;;;;;;;28.77;14.27;;;8.20;90.60;;;;;;5095274;28;20469;-66
2021/01/03 07:21:49;;;;;;;32.10;14.90;;;8.20;90.60;;;;;;5096225;28;20024;-68
2021/01/03 07:24:23;;;;;;;22.52;12.13;;;8.20;90.60;;;;;;5095393;28;20377;-68
2021/01/03 07:27:29;;;;;;;21.38;11.60;;;8.20;90.60;;;;;;5096400;28;20465;-66
2021/01/03 07:29:54;;;;;;;26.75;12.75;;;8.20;90.70;;;;;;5096118;28;20063;-68
2021/01/03 07:32:22;;;;;;;19.70;12.00;;;8.10;90.90;;;;;;5096023;28;20477;-68
2021/01/03 07:34:53;;;;;;;18.55;10.60;;;8.10;90.80;;;;;;5094925;28;20526;-68
2021/01/03 07:37:27;;;;;;;17.02;10.48;;;8.10;91.00;;;;;;5094581;28;20116;-67
2021/01/03 07:39:59;;;;;;;20.27;12.10;;;8.20;91.00;;;;;;5096780;28;20114;-68
2021/01/03 07:42:31;;;;;;;18.52;10.93;;;8.20;91.10;;;;;;5094785;28;20031;-69
2021/01/03 07:44:58;;;;;;;18.42;10.10;;;8.20;90.80;;;;;;5095944;28;20465;-68
2021/01/03 07:47:50;;;;;;;14.25;8.60;;;8.30;90.60;;;;;;5094651;28;20064;-68
2021/01/03 07:50:26;;;;;;;15.77;8.68;;;8.50;90.00;;;;;;5095822;28;20054;-68
2021/01/03 07:52:55;;;;;;;17.38;9.27;;;8.60;89.50;;;;;;5095315;28;20054;-69
2021/01/03 07:55:27;;;;;;;15.52;8.70;;;8.70;89.20;;;;;;5095546;28;20024;-66
2021/01/03 07:58:02;;;;;;;14.63;9.30;;;8.70;88.40;;;;;;5095778;28;20046;-67
2021/01/03 08:00:33;;;;;;;19.20;9.55;;;8.80;87.80;;;;;;5095765;28;20081;-68
2021/01/03 08:03:18;;;;;;;17.02;9.65;;;9.00;86.80;;;;;;5096320;28;20448;-66
2021/01/03 08:05:44;;;;;;;16.17;9.18;;;9.10;87.20;;;;;;5095946;28;20492;-68
2021/01/03 08:08:28;;;;;;;18.98;12.18;;;9.00;88.00;;;;;;5095523;28;20036;-69
2021/01/03 08:11:05;;;;;;;18.73;9.90;;;8.80;89.20;;;;;;5094239;28;20354;-67
2021/01/03 08:13:36;;;;;;;16.13;8.95;;;8.80;89.20;;;;;;5095133;28;20366;-69
2021/01/03 08:16:02;;;;;;;15.45;9.43;;;8.80;89.20;;;;;;5094657;28;20098;-67
2021/01/03 08:18:33;;;;;;;16.38;9.82;;;8.90;89.00;;;;;;5093276;28;20118;-69
2021/01/03 08:21:17;;;;;;;18.55;10.48;;;8.90;89.20;;;;;;5094750;28;20027;-67
2021/01/03 08:23:44;;;;;;;17.90;10.70;;;8.90;89.60;;;;;;5095030;28;20488;-67
2021/01/03 08:26:26;;;;;;;19.75;11.00;;;8.80;89.90;;;;;;5094650;28;20115;-67
2021/01/03 08:28:52;;;;;;;19.83;11.07;;;8.80;90.30;;;;;;5094951;28;20032;-67
2021/01/03 08:31:18;;;;;;;18.73;10.80;;;8.80;90.40;;;;;;5092441;28;20393;-69
2021/01/03 08:33:48;;;;;;;23.85;11.60;;;8.80;90.20;;;;;;5092472;28;20036;-68
2021/01/03 08:36:18;;;;;;;23.42;11.65;;;8.80;90.30;;;;;;5093366;28;20024;-70
2021/01/03 08:38:44;;;;;;;21.27;11.45;;;8.80;90.90;;;;;;5093349;28;20794;-69
2021/01/03 08:41:16;;;;;;;20.00;11.95;;;8.80;90.60;;;;;;5093640;28;20016;-69
2021/01/03 08:43:43;;;;;;;13.73;9.23;;;8.90;90.60;;;;;;5090403;28;20469;-68
2021/01/03 08:46:09;;;;;;;20.05;9.50;;;9.00;90.60;;;;;;5092971;28;20454;-68
2021/01/03 08:48:35;;;;;;;26.08;13.55;;;9.00;90.80;;;;;;5091995;28;20162;-68
2021/01/03 08:51:11;;;;;;;31.50;15.98;;;9.00;91.10;;;;;;5093569;28;20107;-69
2021/01/03 08:53:38;;;;;;;251.40;111.72;;;9.00;91.00;;;;;;5092903;28;20035;-69
2021/01/03 08:56:12;;;;;;;77.38;37.70;;;9.00;91.30;;;;;;5093390;28;20031;-68
2021/01/03 08:58:39;;;;;;;91.40;45.38;;;9.00;91.10;;;;;;5094389;28;20385;-68
2021/01/03 09:01:15;;;;;;;62.03;31.40;;;9.00;91.00;;;;;;5093217;28;20080;-68
2021/01/03 09:03:41;;;;;;;21.88;11.23;;;9.00;91.20;;;;;;5094077;28;20028;-68
2021/01/03 09:06:08;;;;;;;19.13;11.00;;;9.00;91.20;;;;;;5094008;28;20378;-68
2021/01/03 09:08:41;;;;;;;20.38;11.88;;;9.00;90.90;;;;;;5093377;28;20119;-69
2021/01/03 09:11:35;;;;;;;19.48;12.18;;;9.10;90.70;;;;;;5092870;28;20039;-70
2021/01/03 09:14:22;;;;;;;19.85;12.65;;;9.10;90.50;;;;;;5091992;28;20405;-69
2021/01/03 09:17:03;;;;;;;23.85;13.75;;;9.00;90.70;;;;;;5093711;28;20481;-67
2021/01/03 09:19:47;;;;;;;20.80;12.80;;;9.00;90.90;;;;;;5093129;28;20419;-68
2021/01/03 09:22:24;;;;;;;23.75;13.98;;;8.90;91.10;;;;;;5094196;28;20526;-67
2021/01/03 09:25:15;;;;;;;26.20;15.55;;;8.90;91.30;;;;;;5094163;28;20028;-67
2021/01/03 09:27:42;;;;;;;41.35;23.98;;;8.90;91.60;;;;;;5094155;28;20039;-70
2021/01/03 09:30:23;;;;;;;20.98;13.15;;;8.90;91.60;;;;;;5093942;28;20074;-70
2021/01/03 09:33:02;;;;;;;24.30;13.85;;;8.90;91.60;;;;;;5093629;28;20025;-69
2021/01/03 09:35:39;;;;;;;97.03;65.65;;;8.90;91.70;;;;;;5093577;28;20024;-70
2021/01/03 09:38:17;;;;;;;46.45;27.55;;;8.90;91.80;;;;;;5093745;28;20161;-70
2021/01/03 09:41:07;;;;;;;39.53;23.20;;;8.90;91.80;;;;;;5093641;28;20038;-71
2021/01/03 09:44:01;;;;;;;32.28;21.48;;;8.90;91.80;;;;;;5092737;28;20429;-70
2021/01/03 09:46:55;;;;;;;24.52;14.63;;;8.90;91.80;;;;;;5092398;28;20024;-70
2021/01/03 09:49:26;;;;;;;26.52;14.73;;;8.90;91.60;;;;;;5093595;28;20028;-69
2021/01/03 09:51:58;;;;;;;28.45;15.32;;;9.00;91.70;;;;;;5093515;28;20024;-69
2021/01/03 09:54:50;;;;;;;29.48;16.08;;;9.00;91.70;;;;;;5093589;28;20039;-70
2021/01/03 09:57:37;;;;;;;36.42;19.73;;;9.10;91.70;;;;;;5052121;28;20043;-70
2021/01/03 10:00:11;;;;;;;28.98;15.45;;;9.10;91.50;;;;;;5092504;28;20032;-71
2021/01/03 10:02:37;;;;;;;41.27;22.67;;;9.20;91.50;;;;;;5094032;28;20038;-70
2021/01/03 10:05:04;;;;;;;33.53;18.95;;;9.20;91.70;;;;;;5092402;28;20024;-70
2021/01/03 10:07:31;;;;;;;46.13;24.60;;;9.20;91.50;;;;;;5093681;28;20443;-72
2021/01/03 10:10:06;;;;;;;84.15;39.22;;;9.30;91.60;;;;;;5092945;28;20024;-71
2021/01/03 10:12:38;;;;;;;45.55;24.17;;;9.30;91.60;;;;;;5092365;28;20035;-72
2021/01/03 10:15:09;;;;;;;36.40;21.20;;;9.30;91.80;;;;;;5093197;28;20067;-71
2021/01/03 10:17:36;;;;;;;43.65;24.60;;;9.30;91.50;;;;;;5092362;28;20029;-71
2021/01/03 10:20:14;;;;;;;35.50;21.05;;;9.40;91.80;;;;;;5091968;28;20039;-72
2021/01/03 10:22:43;;;;;;;35.53;21.42;;;9.40;91.60;;;;;;5091885;28;20107;-68
2021/01/03 10:25:14;;;;;;;35.33;20.50;;;9.40;91.60;;;;;;5091464;28;20061;-68
2021/01/03 10:27:41;;;;;;;43.40;25.77;;;9.40;91.40;;;;;;5091225;28;20028;-68
2021/01/03 10:30:09;;;;;;;34.80;20.67;;;9.40;91.50;;;;;;5092944;28;20047;-69
2021/01/03 10:32:38;;;;;;;31.75;19.70;;;9.50;91.30;;;;;;5092221;28;20476;-67
2021/01/03 10:35:06;;;;;;;33.65;21.13;;;9.60;91.30;;;;;;5093504;28;20059;-68
2021/01/03 10:37:32;;;;;;;32.08;19.92;;;9.60;91.30;;;;;;5091918;28;20059;-69
2021/01/03 10:39:57;;;;;;;30.90;18.23;;;9.70;91.00;;;;;;5092304;28;20055;-67
2021/01/03 10:42:23;;;;;;;34.95;23.52;;;9.70;90.80;;;;;;5092388;28;20028;-67
2021/01/03 10:44:49;;;;;;;27.88;17.10;;;9.80;90.70;;;;;;5093965;28;20029;-70
2021/01/03 10:47:15;;;;;;;34.85;20.10;;;9.80;90.60;;;;;;5095489;28;20077;-69
2021/01/03 10:49:41;;;;;;;28.27;18.88;;;9.90;90.90;;;;;;5096454;28;20028;-70
2021/01/03 10:52:06;;;;;;;25.95;16.35;;;9.90;90.80;;;;;;5097258;28;20051;-69
2021/01/03 10:54:33;;;;;;;25.15;16.70;;;9.90;90.70;;;;;;5097053;28;20054;-68
2021/01/03 10:56:59;;;;;;;24.42;15.40;;;9.90;90.70;;;;;;5096755;28;20045;-69
2021/01/03 10:59:25;;;;;;;22.60;14.73;;;9.90;90.30;;;;;;5096691;28;20483;-67
2021/01/03 11:01:51;;;;;;;26.00;15.88;;;10.00;90.50;;;;;;5096724;28;20020;-69
2021/01/03 11:04:20;;;;;;;23.17;15.15;;;10.00;90.20;;;;;;5096601;28;20153;-69
2021/01/03 11:06:49;;;;;;;21.55;14.65;;;10.10;90.10;;;;;;5097097;28;20024;-69
2021/01/03 11:09:20;;;;;;;21.58;13.95;;;10.10;89.50;;;;;;5095110;28;20039;-68
2021/01/03 11:11:46;;;;;;;28.20;16.67;;;10.20;88.80;;;;;;5095511;28;20028;-68
2021/01/03 11:14:13;;;;;;;17.85;11.90;;;10.30;88.50;;;;;;5095140;28;20048;-67
2021/01/03 11:16:41;;;;;;;22.77;13.70;;;10.30;87.40;;;;;;5095267;28;20072;-68
2021/01/03 11:19:11;;;;;;;18.35;12.65;;;10.30;87.70;;;;;;5095276;28;20119;-67
2021/01/03 11:21:37;;;;;;;18.98;12.68;;;10.30;88.00;;;;;;5095308;28;20122;-66
2021/01/03 11:24:04;;;;;;;18.45;12.35;;;10.30;88.00;;;;;;5094941;28;20055;-68
2021/01/03 11:26:33;;;;;;;18.70;11.68;;;10.30;87.90;;;;;;5096437;28;20036;-70
2021/01/03 11:29:00;;;;;;;20.95;13.23;;;10.30;87.70;;;;;;5096098;28;20119;-70
2021/01/03 11:31:36;;;;;;;22.67;14.07;;;10.30;87.80;;;;;;5095839;28;20377;-69
2021/01/03 11:34:03;;;;;;;24.77;15.10;;;10.30;87.70;;;;;;5095307;28;20020;-70
2021/01/03 11:36:29;;;;;;;40.28;25.30;;;10.30;88.00;;;;;;5096502;28;20469;-68
2021/01/03 11:38:57;;;;;;;45.05;28.15;;;10.30;88.50;;;;;;5094610;28;20032;-68
2021/01/03 11:41:22;;;;;;;43.65;27.35;;;10.30;88.30;;;;;;5094736;28;20485;-70
2021/01/03 11:43:48;;;;;;;41.90;26.40;;;10.30;88.20;;;;;;5094501;28;20028;-69
2021/01/03 11:46:14;;;;;;;38.30;24.52;;;10.30;88.10;;;;;;5095895;28;20039;-68
2021/01/03 11:48:40;;;;;;;35.65;22.23;;;10.30;88.00;;;;;;5095964;28;20521;-67
2021/01/03 11:51:06;;;;;;;39.83;23.27;;;10.30;87.40;;;;;;5094412;28;20035;-71
2021/01/03 11:53:31;;;;;;;43.55;24.58;;;10.30;87.80;;;;;;5094628;28;20039;-67
2021/01/03 11:55:57;;;;;;;36.40;22.40;;;10.40;88.20;;;;;;5094927;28;20066;-69
2021/01/03 11:58:23;;;;;;;35.67;22.20;;;10.40;88.50;;;;;;5093932;28;20028;-71
2021/01/03 12:00:51;;;;;;;40.65;24.45;;;10.40;88.40;;;;;;5095492;28;20028;-70
2021/01/03 12:03:17;;;;;;;41.55;23.17;;;10.40;89.10;;;;;;5094469;28;20030;-69
2021/01/03 12:05:43;;;;;;;39.08;23.52;;;10.40;88.90;;;;;;5094138;28;20022;-70
2021/01/03 12:08:09;;;;;;;41.00;24.17;;;10.40;88.50;;;;;;5094285;28;20123;-71
2021/01/03 12:10:38;;;;;;;42.25;25.95;;;10.50;88.40;;;;;;5094308;28;20063;-69
2021/01/03 12:13:04;;;;;;;47.92;28.35;;;10.50;88.20;;;;;;5093703;28;20024;-66
2021/01/03 12:15:30;;;;;;;45.30;27.27;;;10.50;88.40;;;;;;5094168;28;20081;-67
2021/01/03 12:17:56;;;;;;;49.90;28.27;;;10.50;88.50;;;;;;5094182;28;20131;-68
2021/01/03 12:20:22;;;;;;;47.03;27.67;;;10.60;87.60;;;;;;5095093;28;20055;-67
2021/01/03 12:22:47;;;;;;;53.55;31.67;;;10.60;87.60;;;;;;5095070;28;20473;-72
2021/01/03 12:25:13;;;;;;;54.97;30.35;;;10.60;87.50;;;;;;5095140;28;20030;-70
2021/01/03 12:27:39;;;;;;;57.90;34.50;;;10.60;87.30;;;;;;5094927;28;20484;-69
2021/01/03 12:30:06;;;;;;;65.53;36.95;;;10.50;87.70;;;;;;5093871;28;20020;-69
2021/01/03 12:32:32;;;;;;;55.45;32.05;;;10.50;87.60;;;;;;5095165;28;20024;-70
2021/01/03 12:34:58;;;;;;;55.65;33.42;;;10.50;87.20;;;;;;5094788;28;20031;-69
2021/01/03 12:37:24;;;;;;;45.47;28.67;;;10.50;87.40;;;;;;5095601;28;20040;-68
2021/01/03 12:39:50;;;;;;;46.80;27.52;;;10.50;87.60;;;;;;5093658;28;20035;-67
2021/01/03 12:42:21;;;;;;;45.72;28.85;;;10.50;88.00;;;;;;5093783;28;20456;-66
2021/01/03 12:44:48;;;;;;;43.55;26.95;;;10.50;87.80;;;;;;5094670;28;20477;-67
2021/01/03 12:47:15;;;;;;;40.25;27.00;;;10.50;87.60;;;;;;5094219;28;20389;-69
2021/01/03 12:49:40;;;;;;;40.65;26.23;;;10.60;87.90;;;;;;5094833;28;20027;-67
2021/01/03 12:52:06;;;;;;;39.15;23.15;;;10.50;88.00;;;;;;5093464;28;20027;-70
2021/01/03 12:54:33;;;;;;;48.67;27.30;;;10.60;86.00;;;;;;5094662;28;20466;-68
2021/01/03 12:56:59;;;;;;;51.33;27.15;;;10.60;86.40;;;;;;5094719;28;20050;-68
2021/01/03 12:59:25;;;;;;;56.45;27.08;;;10.70;86.80;;;;;;5093380;28;20028;-67